createdAt,value
2022-11-16T00:00:11.367Z,8.67
2022-11-16T00:02:37.902Z,8.60
2022-11-16T00:05:04.544Z,8.60
2022-11-16T00:07:30.986Z,8.57
2022-11-16T00:09:57.385Z,8.53
2022-11-16T00:12:23.818Z,8.57
2022-11-16T00:14:50.295Z,8.54
2022-11-16T00:17:16.735Z,8.62
2022-11-16T00:19:43.138Z,8.63
2022-11-16T00:22:09.561Z,8.61
2022-11-16T00:24:35.995Z,8.57
2022-11-16T00:27:02.413Z,8.54
2022-11-16T00:29:28.882Z,8.51
2022-11-16T00:31:55.566Z,8.48
2022-11-16T00:34:22.521Z,8.48
2022-11-16T00:36:48.953Z,8.47
2022-11-16T00:39:16.004Z,8.47
2022-11-16T00:41:42.699Z,8.45
2022-11-16T00:44:09.337Z,8.45
2022-11-16T00:46:35.813Z,8.47
2022-11-16T00:49:02.269Z,8.47
2022-11-16T00:51:28.735Z,8.45
2022-11-16T00:53:55.165Z,8.43
2022-11-16T00:56:21.585Z,8.41
2022-11-16T00:58:48.022Z,8.42
2022-11-16T01:01:14.594Z,8.41
2022-11-16T01:03:41.219Z,8.40
2022-11-16T01:06:09.579Z,8.43
2022-11-16T01:08:37.079Z,8.43
2022-11-16T01:11:22.393Z,8.42
2022-11-16T01:13:49.236Z,8.40
2022-11-16T01:16:16.400Z,8.40
2022-11-16T01:18:50.278Z,8.40
2022-11-16T01:21:16.848Z,8.38
2022-11-16T01:23:43.302Z,8.37
2022-11-16T01:26:09.677Z,8.43
2022-11-16T01:28:36.307Z,8.41
2022-11-16T01:31:03.173Z,8.38
2022-11-16T01:33:29.835Z,8.38
2022-11-16T01:35:56.256Z,8.37
2022-11-16T01:38:25.998Z,8.37
2022-11-16T01:40:55.893Z,8.45
2022-11-16T01:43:23.836Z,8.40
2022-11-16T01:45:50.329Z,8.42
2022-11-16T01:48:18.275Z,8.40
2022-11-16T01:50:44.741Z,8.38
2022-11-16T01:53:11.232Z,8.38
2022-11-16T01:55:37.855Z,8.37
2022-11-16T01:58:23.264Z,8.35
2022-11-16T02:00:49.779Z,8.34
2022-11-16T02:03:17.846Z,8.37
2022-11-16T02:05:50.342Z,8.39
2022-11-16T02:08:42.490Z,8.36
2022-11-16T02:11:18.055Z,8.35
2022-11-16T02:14:01.636Z,8.38
2022-11-16T02:16:28.009Z,8.37
2022-11-16T02:19:01.914Z,8.38
2022-11-16T02:21:34.530Z,8.38
2022-11-16T02:24:19.733Z,8.35
2022-11-16T02:26:46.169Z,8.37
2022-11-16T02:29:23.478Z,8.33
2022-11-16T02:31:57.260Z,8.38
2022-11-16T02:34:23.722Z,8.37
2022-11-16T02:36:50.434Z,8.38
2022-11-16T02:39:17.749Z,8.38
2022-11-16T02:41:44.318Z,8.37
2022-11-16T02:44:12.502Z,8.40
2022-11-16T02:46:39.419Z,8.37
2022-11-16T02:49:15.911Z,8.37
2022-11-16T02:51:42.328Z,8.41
2022-11-16T02:54:12.772Z,8.41
2022-11-16T02:56:51.309Z,8.38
2022-11-16T02:59:17.986Z,8.41
2022-11-16T03:01:47.170Z,8.39
2022-11-16T03:04:25.446Z,8.38
2022-11-16T03:06:51.916Z,8.41
2022-11-16T03:09:19.743Z,8.41
2022-11-16T03:11:59.379Z,8.42
2022-11-16T03:14:32.090Z,8.43
2022-11-16T03:16:58.554Z,8.41
2022-11-16T03:19:36.571Z,8.42
2022-11-16T03:22:06.017Z,8.42
2022-11-16T03:24:32.447Z,8.42
2022-11-16T03:26:58.830Z,8.47
2022-11-16T03:29:31.375Z,8.47
2022-11-16T03:32:18.019Z,8.44
2022-11-16T03:34:45.435Z,8.48
2022-11-16T03:37:11.887Z,8.46
2022-11-16T03:39:38.650Z,8.43
2022-11-16T03:42:09.583Z,8.47
2022-11-16T03:44:35.990Z,8.47
2022-11-16T03:47:02.430Z,8.51
2022-11-16T03:49:30.128Z,8.48
2022-11-16T03:51:56.558Z,8.49
2022-11-16T03:54:22.983Z,8.47
2022-11-16T03:56:49.373Z,8.43
2022-11-16T03:59:15.824Z,8.43
2022-11-16T04:01:44.950Z,8.48
2022-11-16T04:04:31.564Z,8.44
2022-11-16T04:07:16.800Z,8.43
2022-11-16T04:10:01.909Z,8.42
2022-11-16T04:12:47.152Z,8.44
2022-11-16T04:15:32.248Z,8.44
2022-11-16T04:18:17.421Z,8.45
2022-11-16T04:21:02.574Z,8.50
2022-11-16T04:23:47.666Z,8.47
2022-11-16T04:26:14.096Z,8.49
2022-11-16T04:28:40.542Z,8.50
2022-11-16T04:31:25.597Z,8.57
2022-11-16T04:34:10.734Z,8.56
2022-11-16T04:36:55.758Z,8.55
2022-11-16T04:39:22.236Z,8.55
2022-11-16T04:42:07.443Z,8.57
2022-11-16T04:44:55.797Z,8.58
2022-11-16T04:47:22.227Z,8.54
2022-11-16T04:49:48.727Z,8.55
2022-11-16T04:52:15.123Z,8.53
2022-11-16T04:54:41.593Z,8.52
2022-11-16T04:57:08.025Z,8.52
2022-11-16T04:59:34.413Z,8.48
2022-11-16T05:02:09.916Z,8.49
2022-11-16T05:04:40.548Z,8.51
2022-11-16T05:07:13.649Z,8.47
2022-11-16T05:09:44.155Z,8.43
2022-11-16T05:12:19.531Z,8.39
2022-11-16T05:14:46.172Z,8.41
2022-11-16T05:17:12.937Z,8.39
2022-11-16T05:19:58.259Z,8.39
2022-11-16T05:22:25.024Z,8.39
2022-11-16T05:24:51.440Z,8.43
2022-11-16T05:27:18.107Z,8.45
2022-11-16T05:29:44.639Z,8.44
2022-11-16T05:32:11.648Z,8.44
2022-11-16T05:34:38.329Z,8.44
2022-11-16T05:37:04.923Z,8.42
2022-11-16T05:39:31.301Z,8.41
2022-11-16T05:41:57.779Z,8.42
2022-11-16T05:44:24.203Z,8.44
2022-11-16T05:46:50.954Z,8.44
2022-11-16T05:49:17.409Z,8.42
2022-11-16T05:51:44.330Z,8.39
2022-11-16T05:54:14.777Z,8.38
2022-11-16T05:56:41.324Z,8.41
2022-11-16T05:59:11.211Z,8.37
2022-11-16T06:01:41.853Z,8.36
2022-11-16T06:04:08.304Z,8.32
2022-11-16T06:06:34.797Z,8.34
2022-11-16T06:09:01.230Z,8.32
2022-11-16T06:11:31.447Z,8.30
2022-11-16T06:14:01.872Z,8.31
2022-11-16T06:16:28.359Z,8.29
2022-11-16T06:18:54.800Z,8.26
2022-11-16T06:21:21.293Z,8.23
2022-11-16T06:23:47.756Z,8.22
2022-11-16T06:26:14.272Z,8.26
2022-11-16T06:28:40.701Z,8.13
2022-11-16T06:31:07.198Z,7.98
2022-11-16T06:33:34.042Z,7.89
2022-11-16T06:36:00.793Z,7.85
2022-11-16T06:38:27.464Z,7.77
2022-11-16T06:40:54.803Z,7.73
2022-11-16T06:43:21.372Z,7.65
2022-11-16T06:45:55.068Z,7.59
2022-11-16T06:48:21.534Z,7.51
2022-11-16T06:50:48.123Z,7.42
2022-11-16T06:53:14.518Z,7.41
2022-11-16T06:55:40.923Z,7.36
2022-11-16T06:58:07.511Z,7.28
2022-11-16T07:00:33.912Z,7.25
2022-11-16T07:03:02.131Z,7.16
2022-11-16T07:05:28.521Z,7.08
2022-11-16T07:07:55.377Z,7.02
2022-11-16T07:10:22.091Z,7.03
2022-11-16T07:12:48.554Z,7.03
2022-11-16T07:15:15.131Z,7.05
2022-11-16T07:17:42.605Z,7.05
2022-11-16T07:20:09.392Z,6.98
2022-11-16T07:22:35.876Z,6.93
2022-11-16T07:25:02.295Z,6.95
2022-11-16T07:27:28.770Z,6.98
2022-11-16T07:29:55.501Z,7.08
2022-11-16T07:32:21.941Z,7.17
2022-11-16T07:34:48.400Z,7.21
2022-11-16T07:37:15.036Z,7.23
2022-11-16T07:39:41.534Z,7.24
2022-11-16T07:42:11.760Z,7.28
2022-11-16T07:44:38.812Z,7.41
2022-11-16T07:47:05.660Z,7.37
2022-11-16T07:49:32.065Z,7.41
2022-11-16T07:51:58.533Z,7.49
2022-11-16T07:54:24.987Z,7.63
2022-11-16T07:56:51.507Z,7.89
2022-11-16T07:59:17.934Z,8.17
2022-11-16T08:01:46.524Z,8.23
2022-11-16T08:04:12.997Z,8.17
2022-11-16T08:06:39.410Z,8.18
2022-11-16T08:09:05.904Z,8.23
2022-11-16T08:11:32.398Z,8.24
2022-11-16T08:13:58.866Z,8.24
2022-11-16T08:16:25.391Z,8.22
2022-11-16T08:18:52.017Z,8.19
2022-11-16T08:21:18.903Z,8.23
2022-11-16T08:23:45.793Z,8.28
2022-11-16T08:26:15.283Z,8.28
2022-11-16T08:28:42.575Z,8.26
2022-11-16T08:31:16.599Z,8.21
2022-11-16T08:33:43.135Z,8.25
2022-11-16T08:36:14.052Z,8.33
2022-11-16T08:38:40.926Z,8.51
2022-11-16T08:41:07.502Z,8.68
2022-11-16T08:43:33.987Z,9.23
2022-11-16T08:46:00.647Z,9.50
2022-11-16T08:48:27.239Z,9.75
2022-11-16T08:51:16.421Z,10.10
2022-11-16T08:53:40.171Z,9.92
2022-11-16T08:56:08.753Z,10.07
2022-11-16T08:58:36.172Z,10.61
2022-11-16T09:01:09.983Z,11.06
2022-11-16T09:03:37.534Z,11.69
2022-11-16T09:06:04.410Z,12.28
2022-11-16T09:08:31.005Z,12.22
2022-11-16T09:10:57.567Z,12.45
2022-11-16T09:13:24.004Z,13.05
2022-11-16T09:15:55.524Z,13.39
2022-11-16T09:18:21.951Z,12.79
2022-11-16T09:20:48.319Z,12.22
2022-11-16T09:23:14.970Z,12.28
2022-11-16T09:25:42.177Z,12.30
2022-11-16T09:28:08.845Z,12.68
2022-11-16T09:30:35.281Z,12.93
2022-11-16T09:33:01.724Z,13.57
2022-11-16T09:35:28.142Z,14.00
2022-11-16T09:37:54.595Z,13.74
2022-11-16T09:40:21.017Z,12.96
2022-11-16T09:42:52.869Z,11.91
2022-11-16T09:45:27.464Z,10.97
2022-11-16T09:47:56.417Z,11.22
2022-11-16T09:50:28.963Z,11.13
2022-11-16T09:52:55.777Z,11.04
2022-11-16T09:55:24.251Z,10.59
2022-11-16T09:57:51.287Z,10.41
2022-11-16T10:00:19.534Z,10.22
2022-11-16T10:02:48.105Z,10.15
2022-11-16T10:05:18.138Z,9.99
2022-11-16T10:07:45.199Z,10.11
2022-11-16T10:10:18.602Z,10.07
2022-11-16T10:13:11.408Z,10.35
2022-11-16T10:15:53.164Z,10.80
2022-11-16T10:18:38.659Z,11.33
2022-11-16T10:21:20.362Z,11.90
2022-11-16T10:23:49.950Z,11.69
2022-11-16T10:26:21.978Z,11.66
2022-11-16T10:28:57.642Z,11.44
2022-11-16T10:31:33.254Z,11.46
2022-11-16T10:33:59.901Z,11.64
2022-11-16T10:36:27.532Z,11.72
2022-11-16T10:38:54.498Z,12.09
2022-11-16T10:41:37.643Z,12.31
2022-11-16T10:44:08.745Z,13.70
2022-11-16T10:46:40.052Z,14.07
2022-11-16T10:49:15.622Z,13.48
2022-11-16T10:51:42.695Z,12.90
2022-11-16T10:54:15.613Z,12.27
2022-11-16T10:56:42.740Z,11.71
2022-11-16T10:59:10.136Z,11.61
2022-11-16T11:01:40.644Z,11.44
2022-11-16T11:04:26.130Z,11.79
2022-11-16T11:06:58.681Z,11.96
2022-11-16T11:09:26.435Z,12.03
2022-11-16T11:12:30.482Z,12.33
2022-11-16T11:15:00.158Z,12.77
2022-11-16T11:17:26.820Z,12.84
2022-11-16T11:20:04.431Z,12.28
2022-11-16T11:22:31.726Z,11.93
2022-11-16T11:24:58.164Z,11.59
2022-11-16T11:27:29.411Z,11.20
2022-11-16T11:29:55.927Z,11.52
2022-11-16T11:32:24.427Z,12.12
2022-11-16T11:34:54.605Z,12.43
2022-11-16T11:37:25.574Z,12.08
2022-11-16T11:40:04.959Z,11.78
2022-11-16T11:42:31.339Z,11.58
2022-11-16T11:44:58.819Z,11.83
2022-11-16T11:50:21.729Z,13.91
2022-11-16T11:53:07.173Z,15.87
2022-11-16T11:55:33.752Z,16.17
2022-11-16T11:58:01.721Z,15.15
2022-11-16T12:00:29.442Z,14.02
2022-11-16T12:03:14.747Z,13.44
2022-11-16T12:05:46.083Z,12.67
2022-11-16T12:08:31.336Z,12.36
2022-11-16T12:10:57.697Z,12.19
2022-11-16T12:13:32.351Z,12.39
2022-11-16T12:16:14.273Z,12.37
2022-11-16T12:18:40.713Z,12.08
2022-11-16T12:21:25.884Z,11.31
2022-11-16T12:23:52.327Z,11.19
2022-11-16T12:26:37.651Z,11.19
2022-11-16T12:29:22.845Z,11.19
2022-11-16T12:32:18.686Z,11.05
2022-11-16T12:34:45.090Z,11.30
2022-11-16T12:37:16.829Z,11.65
2022-11-16T12:39:44.541Z,12.05
2022-11-16T12:42:11.021Z,12.47
2022-11-16T12:44:37.406Z,12.63
2022-11-16T12:47:10.583Z,12.26
2022-11-16T12:49:49.216Z,12.35
2022-11-16T12:52:27.785Z,12.22
2022-11-16T12:55:25.336Z,12.04
2022-11-16T12:57:56.441Z,11.44
2022-11-16T13:00:22.848Z,11.32
2022-11-16T13:03:07.917Z,11.13
2022-11-16T13:05:45.494Z,11.08
2022-11-16T13:08:17.482Z,10.99
2022-11-16T13:10:45.574Z,11.18
2022-11-16T13:13:35.395Z,11.42
2022-11-16T13:16:02.646Z,11.02
2022-11-16T13:18:29.039Z,10.97
2022-11-16T13:21:00.685Z,10.79
2022-11-16T13:23:39.509Z,10.44
2022-11-16T13:26:23.743Z,10.18
2022-11-16T13:29:01.840Z,10.07
2022-11-16T13:31:33.657Z,10.05
2022-11-16T13:34:01.695Z,10.06
2022-11-16T13:36:39.260Z,10.07
2022-11-16T13:39:06.428Z,9.96
2022-11-16T13:41:32.850Z,9.88
2022-11-16T13:43:59.522Z,9.74
2022-11-16T13:46:58.946Z,9.70
2022-11-16T13:49:25.325Z,9.73
2022-11-16T13:52:17.239Z,9.73
2022-11-16T13:54:53.160Z,9.77
2022-11-16T13:57:22.932Z,9.82
2022-11-16T13:59:56.584Z,9.79
2022-11-16T14:02:28.223Z,9.89
2022-11-16T14:04:59.285Z,9.94
2022-11-16T14:07:30.155Z,9.90
2022-11-16T14:09:56.644Z,9.88
2022-11-16T14:12:38.603Z,9.84
2022-11-16T14:15:15.608Z,9.79
2022-11-16T14:17:57.729Z,9.63
2022-11-16T14:20:44.649Z,9.51
2022-11-16T14:23:14.019Z,9.45
2022-11-16T14:25:40.479Z,9.44
2022-11-16T14:28:25.705Z,9.43
2022-11-16T14:30:56.478Z,9.36
2022-11-16T14:33:29.104Z,9.32
2022-11-16T14:35:55.492Z,9.31
2022-11-16T14:38:26.821Z,9.34
2022-11-16T14:40:58.920Z,9.36
2022-11-16T14:43:30.049Z,9.31
2022-11-16T14:46:00.678Z,9.30
2022-11-16T14:48:27.160Z,9.27
2022-11-16T14:51:02.899Z,9.29
2022-11-16T14:53:29.600Z,9.34
2022-11-16T14:56:06.375Z,9.42
2022-11-16T14:58:32.841Z,9.49
2022-11-16T15:01:03.534Z,9.51
2022-11-16T15:03:31.733Z,9.46
2022-11-16T15:06:02.061Z,9.24
2022-11-16T15:08:36.737Z,9.09
2022-11-16T15:11:03.157Z,8.97
2022-11-16T15:13:29.573Z,8.89
2022-11-16T15:16:15.988Z,8.91
2022-11-16T15:18:55.170Z,8.92
2022-11-16T15:21:22.590Z,8.91
2022-11-16T15:24:08.310Z,8.91
2022-11-16T15:26:35.409Z,8.89
2022-11-16T15:29:01.818Z,8.89
2022-11-16T15:31:28.207Z,8.89
2022-11-16T15:33:54.642Z,8.89
2022-11-16T15:36:21.512Z,8.85
2022-11-16T15:38:48.066Z,8.83
2022-11-16T15:41:14.466Z,8.84
2022-11-16T15:44:01.455Z,8.77
2022-11-16T15:46:29.413Z,8.75
2022-11-16T15:48:55.852Z,8.75
2022-11-16T15:51:28.093Z,8.77
2022-11-16T15:53:54.945Z,8.73
2022-11-16T15:56:21.314Z,8.71
2022-11-16T15:58:47.762Z,8.68
2022-11-16T16:01:14.377Z,8.68
2022-11-16T16:03:46.133Z,8.68
2022-11-16T16:06:12.818Z,8.69
2022-11-16T16:08:39.414Z,8.68
2022-11-16T16:11:08.441Z,8.70
2022-11-16T16:13:36.482Z,8.72
2022-11-16T16:16:12.359Z,8.70
2022-11-16T16:18:42.120Z,8.64
2022-11-16T16:21:09.217Z,8.55
2022-11-16T16:23:43.739Z,8.41
2022-11-16T16:26:10.129Z,8.31
2022-11-16T16:28:36.532Z,8.24
2022-11-16T16:31:02.959Z,8.16
2022-11-16T16:33:29.870Z,8.13
2022-11-16T16:35:56.289Z,8.10
2022-11-16T16:38:22.692Z,8.06
2022-11-16T16:40:49.105Z,8.01
2022-11-16T16:43:15.521Z,7.96
2022-11-16T16:45:43.542Z,8.06
2022-11-16T16:48:11.636Z,8.19
2022-11-16T16:50:38.054Z,8.26
2022-11-16T16:53:04.876Z,8.28
2022-11-16T16:55:36.762Z,8.37
2022-11-16T16:58:03.807Z,8.38
2022-11-16T17:00:30.701Z,8.34
2022-11-16T17:02:58.447Z,8.30
2022-11-16T17:05:26.322Z,8.28
2022-11-16T17:07:56.182Z,8.26
2022-11-16T17:10:23.085Z,8.29
2022-11-16T17:12:49.925Z,8.27
2022-11-16T17:15:19.289Z,8.26
2022-11-16T17:17:46.047Z,8.23
2022-11-16T17:20:12.777Z,8.17
2022-11-16T17:22:39.204Z,8.10
2022-11-16T17:25:05.734Z,8.14
2022-11-16T17:27:32.297Z,8.12
2022-11-16T17:29:58.799Z,8.03
2022-11-16T17:32:25.226Z,7.95
2022-11-16T17:34:51.653Z,7.95
2022-11-16T17:37:18.102Z,7.99
2022-11-16T17:39:44.524Z,7.94
2022-11-16T17:42:10.902Z,7.96
2022-11-16T17:44:37.388Z,7.96
2022-11-16T17:47:03.884Z,7.92
2022-11-16T17:49:30.289Z,7.94
2022-11-16T17:51:56.744Z,7.93
2022-11-16T17:54:23.191Z,7.89
2022-11-16T17:56:49.651Z,7.85
2022-11-16T17:59:16.043Z,7.79
2022-11-16T18:01:42.565Z,7.73
2022-11-16T18:04:09.091Z,7.65
2022-11-16T18:06:35.706Z,7.59
2022-11-16T18:09:02.228Z,7.54
2022-11-16T18:11:28.929Z,7.61
2022-11-16T18:13:56.468Z,7.58
2022-11-16T18:16:23.933Z,7.59
2022-11-16T18:18:54.832Z,7.57
2022-11-16T18:21:21.260Z,7.55
2022-11-16T18:23:47.764Z,7.63
2022-11-16T18:26:14.954Z,7.60
2022-11-16T18:28:56.642Z,7.56
2022-11-16T18:31:23.554Z,7.54
2022-11-16T18:33:50.227Z,7.51
2022-11-16T18:36:17.051Z,7.53
2022-11-16T18:38:43.497Z,7.49
2022-11-16T18:41:13.012Z,7.45
2022-11-16T18:43:39.917Z,7.44
2022-11-16T18:46:06.539Z,7.40
2022-11-16T18:48:33.016Z,7.51
2022-11-16T18:51:03.117Z,7.56
2022-11-16T18:53:29.891Z,7.57
2022-11-16T18:55:58.043Z,7.50
2022-11-16T18:58:49.279Z,7.47
2022-11-16T19:01:13.736Z,7.48
2022-11-16T19:03:40.283Z,7.45
2022-11-16T19:06:10.239Z,7.48
2022-11-16T19:08:37.296Z,7.45
2022-11-16T19:11:07.959Z,7.39
2022-11-16T19:13:34.622Z,7.43
2022-11-16T19:16:01.164Z,7.29
2022-11-16T19:18:27.629Z,7.28
2022-11-16T19:21:10.351Z,7.28
2022-11-16T19:23:44.420Z,7.41
2022-11-16T19:26:12.776Z,7.48
2022-11-16T19:28:39.947Z,7.51
2022-11-16T19:31:07.406Z,7.53
2022-11-16T19:33:34.272Z,7.50
2022-11-16T19:36:05.498Z,7.44
2022-11-16T19:38:31.939Z,7.39
2022-11-16T19:40:58.325Z,7.46
2022-11-16T19:43:24.757Z,7.45
2022-11-16T19:45:51.184Z,7.53
2022-11-16T19:48:17.603Z,7.51
2022-11-16T19:50:43.983Z,7.44
2022-11-16T19:53:10.738Z,7.50
2022-11-16T19:55:37.100Z,7.49
2022-11-16T19:58:03.538Z,7.49
2022-11-16T20:00:29.938Z,7.49
2022-11-16T20:02:57.292Z,7.62
2022-11-16T20:05:24.077Z,7.66
2022-11-16T20:07:50.493Z,7.67
2022-11-16T20:10:17.279Z,7.72
2022-11-16T20:12:43.698Z,7.72
2022-11-16T20:15:10.155Z,7.64
2022-11-16T20:17:36.573Z,7.59
2022-11-16T20:20:03.034Z,7.57
2022-11-16T20:22:29.447Z,7.64
2022-11-16T20:24:55.842Z,7.66
2022-11-16T20:27:22.318Z,7.71
2022-11-16T20:29:48.737Z,7.72
2022-11-16T20:32:15.190Z,7.76
2022-11-16T20:34:41.651Z,7.75
2022-11-16T20:37:08.665Z,7.80
2022-11-16T20:39:35.395Z,7.83
2022-11-16T20:42:01.809Z,7.90
2022-11-16T20:44:28.256Z,7.92
2022-11-16T20:46:54.653Z,7.92
2022-11-16T20:49:21.103Z,7.92
2022-11-16T20:51:48.404Z,7.86
2022-11-16T20:54:15.187Z,7.88
2022-11-16T20:56:41.716Z,7.86
2022-11-16T20:59:08.207Z,7.88
2022-11-16T21:01:34.741Z,7.95
2022-11-16T21:04:01.950Z,8.00
2022-11-16T21:06:28.509Z,8.03
2022-11-16T21:08:55.166Z,8.03
2022-11-16T21:11:23.215Z,8.01
2022-11-16T21:14:09.910Z,8.02
2022-11-16T21:16:36.418Z,8.04
2022-11-16T21:19:03.067Z,8.07
2022-11-16T21:21:29.510Z,8.03
2022-11-16T21:23:55.998Z,8.08
2022-11-16T21:26:23.555Z,8.06
2022-11-16T21:28:50.038Z,8.03
2022-11-16T21:31:17.743Z,8.01
2022-11-16T21:33:44.852Z,8.05
2022-11-16T21:36:15.748Z,8.05
2022-11-16T21:38:42.342Z,8.00
2022-11-16T21:41:09.452Z,8.09
2022-11-16T21:43:36.459Z,8.06
2022-11-16T21:46:04.336Z,8.03
2022-11-16T21:48:31.542Z,8.01
2022-11-16T21:51:05.080Z,7.98
2022-11-16T21:53:31.874Z,7.98
2022-11-16T21:55:58.642Z,7.96
2022-11-16T21:58:25.210Z,8.02
2022-11-16T22:00:55.750Z,8.04
2022-11-16T22:03:25.881Z,8.11
2022-11-16T22:06:11.860Z,8.07
2022-11-16T22:08:38.481Z,8.00
2022-11-16T22:11:04.921Z,8.04
2022-11-16T22:13:31.337Z,8.04
2022-11-16T22:15:57.756Z,8.04
2022-11-16T22:18:24.146Z,8.07
2022-11-16T22:20:50.692Z,8.10
2022-11-16T22:23:22.492Z,8.15
2022-11-16T22:25:49.263Z,8.14
2022-11-16T22:28:22.914Z,8.10
2022-11-16T22:30:51.962Z,8.11
2022-11-16T22:33:18.765Z,8.11
2022-11-16T22:35:46.710Z,8.08
2022-11-16T22:38:13.119Z,8.07
2022-11-16T22:40:39.548Z,8.06
2022-11-16T22:43:05.969Z,8.05
2022-11-16T22:45:32.373Z,8.09
2022-11-16T22:47:58.808Z,8.05
2022-11-16T22:50:25.322Z,8.04
2022-11-16T22:52:51.769Z,8.03
2022-11-16T22:55:18.222Z,7.98
2022-11-16T22:57:44.653Z,8.02
2022-11-16T23:00:12.162Z,8.03
2022-11-16T23:02:38.570Z,7.99
2022-11-16T23:05:05.140Z,7.97
2022-11-16T23:07:31.584Z,8.08
2022-11-16T23:09:58.042Z,8.08
2022-11-16T23:12:43.112Z,8.06
2022-11-16T23:15:50.117Z,8.10
2022-11-16T23:18:16.738Z,8.06
2022-11-16T23:21:01.794Z,8.08
2022-11-16T23:23:47.043Z,8.13
2022-11-16T23:26:33.149Z,8.22
2022-11-16T23:28:59.555Z,8.21
2022-11-16T23:31:25.966Z,8.20
2022-11-16T23:33:52.383Z,8.28
2022-11-16T23:36:18.838Z,8.25
2022-11-16T23:38:45.276Z,8.22
2022-11-16T23:41:30.493Z,8.20
2022-11-16T23:43:59.926Z,8.22
2022-11-16T23:46:27.103Z,8.23
2022-11-16T23:48:53.481Z,8.23
2022-11-16T23:51:19.975Z,8.24
2022-11-16T23:53:46.362Z,8.24
2022-11-16T23:56:12.773Z,8.24
2022-11-16T23:58:39.161Z,8.18
